Time;durP1;ratioP1;P1;durP2;ratioP2;P2;SDS_P1;SDS_P2;PMS_P1;PMS_P2;Temp;Humidity;BMP_temperature;BMP_pressure;BME280_temperature;BME280_humidity;BME280_pressure;Samples;Min_cycle;Max_cycle;Signal;HPM_P1;HPM_P2
2022/04/22 00:00:52;;;;;;;13.10;4.10;;;;;;;7.79;78.59;100747.53;2056178;28;20774;-63
2022/04/22 00:02:03;;;;;;;13.05;3.97;;;;;;;7.73;78.26;100742.41;2056335;28;20294;-63
2022/04/22 00:03:08;;;;;;;10.88;3.90;;;;;;;7.76;78.48;100744.56;2057560;28;20312;-63
2022/04/22 00:04:16;;;;;;;13.30;4.10;;;;;;;7.77;78.01;100748.84;2064164;28;20309;-63
2022/04/22 00:05:18;;;;;;;7.05;3.75;;;;;;;7.83;78.26;100743.28;2055397;28;20290;-63
2022/04/22 00:06:20;;;;;;;10.73;3.40;;;;;;;7.86;78.12;100748.13;2056681;28;20305;-63
2022/04/22 00:07:22;;;;;;;7.47;3.35;;;;;;;7.88;77.76;100746.00;2048446;29;20937;-63
2022/04/22 00:08:28;;;;;;;9.88;3.60;;;;;;;7.89;77.76;100746.81;2060772;28;20401;-64
2022/04/22 00:09:35;;;;;;;9.68;3.67;;;;;;;7.96;77.62;100749.28;2055886;28;20314;-64
2022/04/22 00:11:29;;;;;;;8.30;3.40;;;;;;;8.04;77.95;100744.25;2051195;28;20325;-63
2022/04/22 00:12:02;;;;;;;10.48;3.83;;;;;;;8.17;77.33;100752.91;2055968;28;20386;-63
2022/04/22 00:13:05;;;;;;;11.07;4.03;;;;;;;8.27;77.05;100744.94;2056892;28;20286;-62
2022/04/22 00:14:11;;;;;;;8.50;3.33;;;;;;;8.36;76.63;100746.06;2056656;28;20290;-63
2022/04/22 00:15:14;;;;;;;9.82;3.30;;;;;;;8.45;76.75;100749.06;2056919;28;20301;-63
2022/04/22 00:16:17;;;;;;;12.43;3.97;;;;;;;8.50;76.43;100741.88;2062553;28;20316;-63
2022/04/22 00:17:20;;;;;;;10.20;3.35;;;;;;;8.49;76.07;100745.63;2064831;28;20293;-63
2022/04/22 00:18:27;;;;;;;13.27;3.80;;;;;;;8.56;75.43;100746.22;2072436;28;20292;-62
2022/04/22 00:19:30;;;;;;;15.98;3.53;;;;;;;8.58;75.20;100744.09;2064270;28;20281;-61
2022/04/22 00:20:33;;;;;;;9.23;3.55;;;;;;;8.55;74.96;100741.91;2065102;28;20288;-62
2022/04/22 00:21:41;;;;;;;9.95;3.40;;;;;;;8.61;75.38;100734.72;2071770;28;20281;-64
2022/04/22 00:22:48;;;;;;;6.50;3.05;;;;;;;8.70;75.17;100735.84;2072993;28;20737;-62
2022/04/22 00:23:50;;;;;;;11.02;3.60;;;;;;;8.77;75.24;100732.91;2064391;28;20054;-62
2022/04/22 00:24:53;;;;;;;10.70;3.50;;;;;;;8.84;74.71;100730.00;2056150;28;20329;-62
2022/04/22 00:26:01;;;;;;;9.75;4.07;;;;;;;8.86;74.85;100725.97;2056655;28;20305;-61
2022/04/22 00:27:06;;;;;;;11.65;3.88;;;;;;;8.89;74.03;100728.13;2065428;28;20294;-61
2022/04/22 00:28:11;;;;;;;11.30;4.22;;;;;;;8.90;74.47;100726.25;2064332;28;20711;-61
2022/04/22 00:29:19;;;;;;;12.93;4.22;;;;;;;8.95;73.76;100726.25;2063895;28;20305;-61
2022/04/22 00:30:22;;;;;;;11.35;4.00;;;;;;;8.94;73.71;100730.03;2064142;28;20290;-61
2022/04/22 00:31:31;;;;;;;10.80;4.00;;;;;;;8.94;73.69;100736.19;2056098;28;20774;-60
2022/04/22 00:32:39;;;;;;;11.80;3.95;;;;;;;8.94;73.71;100732.69;2058704;28;20286;-60
2022/04/22 00:33:43;;;;;;;11.65;4.35;;;;;;;8.99;73.96;100733.53;2064310;28;20800;-62
2022/04/22 00:34:48;;;;;;;13.35;4.68;;;;;;;9.04;73.91;100725.47;2064368;28;20286;-62
2022/04/22 00:35:53;;;;;;;11.07;4.40;;;;;;;9.09;73.73;100724.72;2064117;28;20290;-61
2022/04/22 00:36:59;;;;;;;15.15;4.28;;;;;;;9.05;73.32;100727.13;2073199;28;20328;-61
2022/04/22 00:38:03;;;;;;;14.02;4.13;;;;;;;9.02;73.35;100724.97;2072271;28;20301;-62
2022/04/22 00:39:06;;;;;;;11.45;4.07;;;;;;;9.03;73.76;100718.50;2072867;28;20289;-62
2022/04/22 00:40:11;;;;;;;16.67;4.18;;;;;;;9.10;73.29;100728.19;2071605;28;20293;-65
2022/04/22 00:41:13;;;;;;;8.20;3.55;;;;;;;9.08;72.84;100724.94;2058207;28;20293;-62
2022/04/22 00:42:18;;;;;;;8.48;3.60;;;;;;;9.10;72.93;100725.50;2064477;28;20293;-61
2022/04/22 00:43:27;;;;;;;11.82;4.13;;;;;;;9.12;73.63;100726.06;2071814;28;20385;-62
2022/04/22 00:44:33;;;;;;;11.77;3.80;;;;;;;9.18;73.38;100719.63;2064277;28;20289;-61
2022/04/22 00:45:35;;;;;;;13.32;4.38;;;;;;;9.20;73.34;100723.63;2056417;28;20308;-62
2022/04/22 00:46:38;;;;;;;12.82;4.22;;;;;;;9.23;73.09;100720.44;2056095;28;20965;-62
2022/04/22 00:47:41;;;;;;;11.18;4.18;;;;;;;9.20;73.52;100717.47;2056487;28;20282;-62
2022/04/22 00:48:47;;;;;;;11.57;4.30;;;;;;;9.19;72.78;100722.03;2058896;28;20642;-62
2022/04/22 00:49:49;;;;;;;11.63;4.20;;;;;;;9.21;72.62;100714.53;2063772;28;20305;-62
2022/04/22 00:50:54;;;;;;;11.02;4.32;;;;;;;9.23;73.14;100723.13;2063514;28;20650;-62
2022/04/22 00:51:57;;;;;;;10.05;3.90;;;;;;;9.27;73.19;100718.84;2056584;28;20309;-62
2022/04/22 00:53:01;;;;;;;14.35;3.88;;;;;;;9.25;73.22;100718.31;2055922;28;20378;-62
2022/04/22 00:54:05;;;;;;;10.30;3.75;;;;;;;9.27;72.84;100718.06;2056638;28;20286;-62
2022/04/22 00:55:09;;;;;;;9.45;4.18;;;;;;;9.29;73.24;100711.31;2056491;28;20278;-62
2022/04/22 00:56:15;;;;;;;10.50;4.20;;;;;;;9.27;72.80;100716.16;2065053;28;20274;-62
2022/04/22 00:57:22;;;;;;;10.65;4.10;;;;;;;9.27;72.88;100713.47;2071442;28;20272;-61
2022/04/22 00:58:24;;;;;;;13.57;4.20;;;;;;;9.28;72.86;100711.59;2072264;28;20297;-61
2022/04/22 00:59:31;;;;;;;7.30;3.90;;;;;;;9.23;72.68;100714.25;2064180;28;20288;-61
2022/04/22 01:00:34;;;;;;;9.50;3.97;;;;;;;9.14;72.65;100715.84;2064885;28;20858;-61
2022/04/22 01:01:37;;;;;;;11.73;3.97;;;;;;;8.98;73.05;100713.13;2072244;28;21059;-61
2022/04/22 01:02:42;;;;;;;8.40;3.58;;;;;;;8.90;73.06;100712.84;2071783;28;20779;-62
2022/04/22 01:10:37;;;;;;;6.63;3.70;;;;;;;8.85;72.82;100716.31;2080550;28;20285;-61
2022/04/22 01:11:39;;;;;;;10.27;3.90;;;;;;;8.91;72.76;100723.28;2064049;28;20289;-61
2022/04/22 01:12:42;;;;;;;12.30;3.67;;;;;;;8.98;72.97;100715.81;2065071;28;20397;-61
2022/04/22 01:13:50;;;;;;;7.22;3.92;;;;;;;9.07;72.92;100718.78;2063802;28;20289;-62
2022/04/22 01:14:53;;;;;;;9.02;3.78;;;;;;;9.15;73.41;100717.47;2042375;28;20291;-62
2022/04/22 01:15:56;;;;;;;9.23;3.83;;;;;;;9.18;72.67;100719.63;2056086;28;20278;-61
2022/04/22 01:17:00;;;;;;;8.82;3.45;;;;;;;9.19;72.97;100715.88;2056633;28;20286;-63
2022/04/22 01:18:07;;;;;;;13.13;4.03;;;;;;;9.23;72.53;100715.06;2058774;28;20305;-62
2022/04/22 01:19:09;;;;;;;10.10;3.75;;;;;;;9.23;72.66;100711.56;2066912;28;20290;-61
2022/04/22 01:20:16;;;;;;;9.35;3.40;;;;;;;9.27;72.83;100721.53;2074140;28;20696;-62
2022/04/22 01:21:18;;;;;;;8.30;3.60;;;;;;;9.25;72.07;100714.81;2081029;28;20299;-61
2022/04/22 01:22:27;;;;;;;9.63;3.83;;;;;;;9.22;72.31;100715.34;2065573;28;20281;-62
2022/04/22 01:23:34;;;;;;;11.18;4.00;;;;;;;9.24;72.21;100723.94;2059002;28;20293;-61
2022/04/22 01:24:37;;;;;;;8.75;3.75;;;;;;;9.25;72.31;100720.97;2066978;28;20046;-62
2022/04/22 01:25:41;;;;;;;8.90;3.65;;;;;;;9.24;71.87;100719.38;2073657;28;20299;-62
2022/04/22 01:26:49;;;;;;;9.70;4.05;;;;;;;9.14;71.87;100714.00;2073998;28;20304;-62
2022/04/22 01:27:56;;;;;;;8.25;3.80;;;;;;;9.13;71.67;100716.94;2073704;28;20705;-62
2022/04/22 01:29:04;;;;;;;11.27;4.10;;;;;;;9.01;72.06;100720.63;2073723;28;20042;-62
2022/04/22 01:30:09;;;;;;;11.85;4.13;;;;;;;8.99;72.31;100717.44;2064202;28;20647;-62
2022/04/22 01:31:19;;;;;;;7.68;3.75;;;;;;;8.94;72.39;100713.94;2067069;28;20285;-62
2022/04/22 01:32:22;;;;;;;11.43;3.90;;;;;;;8.94;72.49;100714.72;2066990;28;20286;-63
2022/04/22 01:33:27;;;;;;;7.30;3.97;;;;;;;8.95;72.86;100719.03;2073885;28;20291;-63
2022/04/22 01:34:30;;;;;;;10.57;3.85;;;;;;;8.99;72.99;100708.59;2073598;28;20289;-63
2022/04/22 01:35:35;;;;;;;9.00;4.30;;;;;;;8.99;72.98;100712.06;2073959;28;20332;-63
2022/04/22 01:36:38;;;;;;;11.15;4.05;;;;;;;9.03;73.16;100713.16;2081964;28;20295;-62
2022/04/22 01:37:44;;;;;;;8.70;3.92;;;;;;;9.09;72.90;100718.53;2073605;28;20285;-62
2022/04/22 01:38:49;;;;;;;6.90;3.63;;;;;;;9.07;73.14;100718.78;2072921;28;20292;-62
2022/04/22 01:39:56;;;;;;;12.82;3.90;;;;;;;9.12;72.65;100715.31;2065496;28;20293;-63
2022/04/22 01:41:00;;;;;;;12.07;3.63;;;;;;;9.18;72.73;100714.28;2057324;28;20309;-63
2022/04/22 01:42:07;;;;;;;7.60;4.00;;;;;;;9.20;72.26;100718.28;2058071;28;20770;-63
2022/04/22 01:43:14;;;;;;;12.80;3.97;;;;;;;9.17;72.06;100718.81;2066771;28;20286;-63
2022/04/22 01:44:19;;;;;;;9.40;3.95;;;;;;;9.16;72.39;100717.19;2064926;28;20808;-63
2022/04/22 01:45:21;;;;;;;8.50;4.10;;;;;;;9.16;71.53;100721.75;2050315;28;20291;-63
2022/04/22 01:46:24;;;;;;;10.02;3.58;;;;;;;9.12;71.79;100720.69;2061100;28;20297;-63
2022/04/22 01:47:29;;;;;;;10.43;3.90;;;;;;;9.12;71.63;100723.38;2073109;28;20736;-63
2022/04/22 01:48:35;;;;;;;7.93;3.83;;;;;;;9.05;71.57;100716.38;2066391;28;20285;-62
2022/04/22 01:49:40;;;;;;;10.45;4.05;;;;;;;9.03;72.01;100713.16;2074017;28;20289;-64
2022/04/22 01:50:45;;;;;;;9.48;3.92;;;;;;;9.01;72.49;100720.63;2073533;28;20289;-63
2022/04/22 01:51:54;;;;;;;6.55;3.75;;;;;;;8.98;72.02;100715.81;2074577;28;20284;-62
2022/04/22 01:52:57;;;;;;;10.15;3.83;;;;;;;8.95;72.16;100716.38;2081798;28;20284;-63
2022/04/22 01:53:59;;;;;;;6.38;3.80;;;;;;;8.95;72.29;100713.69;2073429;28;20288;-63
2022/04/22 01:55:03;;;;;;;8.15;3.95;;;;;;;8.96;72.11;100723.31;2057545;28;20294;-63
2022/04/22 01:56:04;;;;;;;12.43;3.47;;;;;;;9.00;72.11;100724.41;2057697;28;20286;-62
2022/04/22 01:57:09;;;;;;;8.55;3.85;;;;;;;9.01;71.67;100719.84;2064922;28;20288;-63
2022/04/22 01:58:13;;;;;;;11.80;4.22;;;;;;;9.02;72.31;100714.22;2073383;28;20772;-63
2022/04/22 01:59:14;;;;;;;11.77;3.97;;;;;;;9.04;71.85;100716.63;2080657;28;20311;-63
2022/04/22 02:00:16;;;;;;;9.82;3.80;;;;;;;9.02;71.86;100718.78;2072165;28;20289;-63
2022/04/22 02:01:20;;;;;;;8.27;3.95;;;;;;;9.09;71.52;100713.97;2064861;28;20361;-63
2022/04/22 02:02:22;;;;;;;9.55;3.78;;;;;;;9.15;72.27;100725.53;2064634;28;20289;-62
2022/04/22 02:03:25;;;;;;;9.30;3.65;;;;;;;9.11;71.65;100714.53;2062763;28;20758;-63
2022/04/22 02:04:30;;;;;;;7.15;3.65;;;;;;;9.03;71.69;100718.50;2057394;28;20305;-63
2022/04/22 02:05:33;;;;;;;7.03;3.60;;;;;;;9.08;70.32;100717.75;2057186;28;20294;-62
2022/04/22 02:06:37;;;;;;;9.63;3.63;;;;;;;9.14;70.45;100719.38;2065289;28;20301;-64
2022/04/22 02:07:41;;;;;;;5.95;3.00;;;;;;;9.16;70.34;100727.13;2056798;28;20286;-63
2022/04/22 02:08:44;;;;;;;10.98;3.63;;;;;;;9.12;70.04;100720.69;2057879;28;20297;-63
2022/04/22 02:09:48;;;;;;;8.75;3.38;;;;;;;9.11;70.40;100724.44;2064326;28;20285;-63
2022/04/22 02:10:54;;;;;;;7.63;3.35;;;;;;;9.18;70.95;100719.63;2056173;28;20777;-63
2022/04/22 02:11:58;;;;;;;12.63;3.30;;;;;;;9.16;69.85;100724.44;2057481;28;20298;-62
2022/04/22 02:13:02;;;;;;;7.90;3.28;;;;;;;9.13;70.03;100724.97;2064958;28;20293;-62
2022/04/22 02:14:04;;;;;;;9.63;3.67;;;;;;;9.11;70.42;100724.44;2065728;28;20350;-62
2022/04/22 02:15:10;;;;;;;8.32;3.53;;;;;;;9.10;69.45;100725.50;2080044;28;20302;-62
2022/04/22 02:16:13;;;;;;;6.03;3.50;;;;;;;9.04;69.73;100720.13;2067012;28;20293;-63
2022/04/22 02:17:16;;;;;;;6.18;3.40;;;;;;;9.01;69.48;100723.31;2065756;28;20302;-62
2022/04/22 02:18:20;;;;;;;8.10;3.40;;;;;;;9.04;69.38;100719.31;2057000;28;20317;-65
2022/04/22 02:19:23;;;;;;;4.70;3.10;;;;;;;9.00;68.99;100724.41;2057720;28;20927;-63
2022/04/22 02:20:27;;;;;;;8.70;3.70;;;;;;;8.97;69.48;100719.56;2057154;28;20762;-63
2022/04/22 02:21:33;;;;;;;8.32;3.63;;;;;;;8.96;69.31;100719.84;2058200;28;20274;-63
2022/04/22 02:22:37;;;;;;;6.40;3.10;;;;;;;8.96;69.26;100717.97;2073305;28;20276;-62
2022/04/22 02:23:41;;;;;;;6.85;3.25;;;;;;;9.00;69.95;100721.72;2057198;28;20282;-60
2022/04/22 02:24:44;;;;;;;10.95;3.20;;;;;;;9.02;69.42;100719.59;2057776;28;20770;-62
2022/04/22 02:25:48;;;;;;;6.45;3.40;;;;;;;9.07;69.47;100726.84;2057082;28;20298;-63
2022/04/22 02:28:33;;;;;;;9.32;4.25;;;;;;;9.13;69.05;100727.66;2064548;28;20281;-63
2022/04/22 02:29:38;;;;;;;5.80;3.28;;;;;;;9.12;68.08;100734.09;2057191;28;20369;-63
2022/04/22 02:30:43;;;;;;;9.75;3.95;;;;;;;9.10;68.43;100730.88;2060080;28;20682;-63
2022/04/22 02:31:46;;;;;;;8.63;3.60;;;;;;;9.10;68.08;100726.31;2064701;28;20754;-62
2022/04/22 02:32:50;;;;;;;7.30;3.55;;;;;;;9.11;67.84;100725.25;2048986;29;20293;-63
2022/04/22 02:33:52;;;;;;;8.20;3.45;;;;;;;9.16;68.40;100733.28;2049623;28;20295;-64
2022/04/22 02:35:00;;;;;;;6.60;3.72;;;;;;;9.20;67.84;100729.00;2057135;28;20290;-63
2022/04/22 02:36:03;;;;;;;9.02;3.67;;;;;;;9.22;67.71;100726.06;2050662;28;20817;-62
2022/04/22 02:37:06;;;;;;;7.78;3.67;;;;;;;9.28;67.34;100730.38;2056933;28;20290;-62
2022/04/22 02:38:11;;;;;;;7.70;3.47;;;;;;;9.36;67.46;100729.03;2057861;28;20290;-62
2022/04/22 02:39:16;;;;;;;10.88;3.75;;;;;;;9.36;66.48;100724.47;2064642;28;20312;-64
2022/04/22 02:45:46;;;;;;;9.80;3.70;;;;;;;9.48;66.18;100730.41;2064555;28;20281;-60
2022/04/22 02:46:49;;;;;;;5.50;3.20;;;;;;;9.48;65.94;100725.03;2057281;28;20325;-62
2022/04/22 02:47:52;;;;;;;6.00;3.20;;;;;;;9.46;66.55;100723.72;2056947;28;20312;-61
2022/04/22 02:48:59;;;;;;;9.55;3.17;;;;;;;9.47;65.89;100723.44;2064627;28;20733;-61
2022/04/22 02:50:05;;;;;;;;;;;;;;;9.43;66.28;100732.28;2064936;28;20296;-61
2022/04/22 02:51:10;;;;;;;6.35;2.97;;;;;;;9.39;66.08;100715.88;2057615;28;19922;-62
2022/04/22 02:52:12;;;;;;;8.68;3.65;;;;;;;9.39;66.32;100720.47;2057526;28;20895;-62
2022/04/22 02:53:21;;;;;;;7.47;3.13;;;;;;;9.34;66.53;100723.97;2057496;28;20314;-62
2022/04/22 02:54:30;;;;;;;8.63;3.75;;;;;;;9.28;66.57;100733.06;2056824;28;20283;-62
2022/04/22 02:55:38;;;;;;;5.13;2.95;;;;;;;9.25;66.77;100731.72;2058137;28;20294;-62
2022/04/22 02:56:44;;;;;;;8.48;3.40;;;;;;;9.27;67.24;100729.59;2073449;28;20388;-63
2022/04/22 02:57:46;;;;;;;8.27;3.60;;;;;;;9.25;67.61;100731.72;2073136;28;20696;-63
2022/04/22 02:58:48;;;;;;;7.05;3.30;;;;;;;9.23;67.04;100730.38;2070288;28;20282;-64
2022/04/22 02:59:51;;;;;;;8.05;3.67;;;;;;;9.17;67.29;100734.09;2060374;28;20301;-64
2022/04/22 03:00:56;;;;;;;6.93;3.67;;;;;;;9.12;67.49;100736.78;2049212;28;20354;-62
2022/04/22 03:02:00;;;;;;;7.05;3.75;;;;;;;9.05;67.73;100735.16;2056229;28;20329;-63
2022/04/22 03:03:05;;;;;;;6.10;3.33;;;;;;;9.04;67.54;100746.13;2057005;28;20317;-63
2022/04/22 03:04:06;;;;;;;5.72;3.58;;;;;;;9.07;68.61;100744.81;2049273;28;20294;-68
2022/04/22 03:05:12;;;;;;;6.50;3.40;;;;;;;9.01;68.02;100747.47;2056884;28;20317;-63
2022/04/22 03:06:15;;;;;;;9.25;3.85;;;;;;;8.95;68.57;100751.22;2056799;28;20282;-63
2022/04/22 03:07:16;;;;;;;7.78;3.88;;;;;;;8.94;68.74;100752.28;2056707;28;20301;-63
2022/04/22 03:08:21;;;;;;;7.50;4.03;;;;;;;8.92;68.58;100743.69;2056384;28;20944;-63
2022/04/22 03:09:26;;;;;;;6.80;3.80;;;;;;;8.92;69.35;100758.97;2064227;28;20292;-63
2022/04/22 03:10:31;;;;;;;8.10;3.88;;;;;;;8.86;69.40;100766.19;2064641;28;20304;-63
2022/04/22 03:11:34;;;;;;;7.88;3.90;;;;;;;8.77;69.86;100760.53;2064698;28;20308;-63
2022/04/22 03:12:36;;;;;;;10.15;4.00;;;;;;;8.71;70.42;100755.41;2064397;28;20285;-63
2022/04/22 03:13:41;;;;;;;6.10;3.83;;;;;;;8.63;71.34;100758.56;2065410;28;20289;-62
2022/04/22 03:14:46;;;;;;;9.23;4.53;;;;;;;8.61;71.05;100752.66;2064115;28;20297;-63
2022/04/22 03:15:50;;;;;;;9.40;4.07;;;;;;;8.57;71.50;100753.19;2065087;28;20294;-66
2022/04/22 03:16:57;;;;;;;5.53;3.78;;;;;;;8.57;71.47;100757.72;2064853;28;20281;-63
2022/04/22 03:18:03;;;;;;;6.28;4.00;;;;;;;8.49;71.38;100756.34;2064458;28;20297;-63
2022/04/22 03:19:08;;;;;;;6.93;4.05;;;;;;;8.49;71.94;100745.63;2057697;28;20294;-63
2022/04/22 03:20:13;;;;;;;9.55;4.10;;;;;;;8.41;72.51;100759.50;2057218;28;20298;-63
2022/04/22 03:21:19;;;;;;;8.55;4.15;;;;;;;8.38;72.25;100743.97;2064311;28;20286;-64
2022/04/22 03:22:21;;;;;;;10.35;3.90;;;;;;;8.36;73.08;100751.44;2063918;28;20285;-64
2022/04/22 03:23:29;;;;;;;7.35;3.80;;;;;;;8.28;72.94;100747.34;2063692;28;20308;-63
2022/04/22 03:24:37;;;;;;;10.68;4.00;;;;;;;8.31;73.25;100764.78;2048705;29;20801;-63
2022/04/22 03:25:41;;;;;;;11.95;3.85;;;;;;;8.35;73.07;100757.84;2058470;28;20301;-63
2022/04/22 03:26:44;;;;;;;6.85;3.72;;;;;;;8.34;73.34;100753.56;2064326;28;20301;-63
2022/04/22 03:27:47;;;;;;;6.78;3.50;;;;;;;8.40;72.82;100751.75;2064553;28;20293;-61
2022/04/22 03:28:48;;;;;;;10.77;4.00;;;;;;;8.39;72.65;100752.81;2064663;28;20292;-63
2022/04/22 03:29:53;;;;;;;7.95;3.63;;;;;;;8.35;73.03;100757.84;2053347;28;20305;-62
2022/04/22 03:30:54;;;;;;;6.50;3.80;;;;;;;8.37;73.15;100753.03;2048870;28;20328;-63
2022/04/22 03:31:59;;;;;;;7.32;3.55;;;;;;;8.42;72.27;100750.44;2049124;28;20869;-63
2022/04/22 03:33:02;;;;;;;7.13;3.72;;;;;;;8.49;72.19;100755.56;2057174;28;20798;-62
2022/04/22 03:34:06;;;;;;;6.05;3.20;;;;;;;8.51;72.16;100746.19;2056575;28;20294;-62
2022/04/22 03:35:09;;;;;;;6.65;3.60;;;;;;;8.55;71.47;100755.31;2056636;28;20298;-62
2022/04/22 03:36:12;;;;;;;9.43;4.05;;;;;;;8.57;71.65;100747.84;2064499;28;20285;-62
2022/04/22 03:37:17;;;;;;;5.50;3.45;;;;;;;8.56;71.26;100751.56;2063386;28;20295;-62
2022/04/22 03:38:22;;;;;;;9.05;3.90;;;;;;;8.54;71.72;100771.66;2064991;28;20316;-63
2022/04/22 03:39:24;;;;;;;5.22;3.70;;;;;;;8.52;71.77;100747.81;2058806;28;20298;-63
2022/04/22 03:40:26;;;;;;;5.28;3.60;;;;;;;8.49;71.86;100759.03;2048235;28;20289;-64
2022/04/22 03:41:33;;;;;;;6.20;3.60;;;;;;;8.55;71.45;100749.97;2064480;28;20815;-61
2022/04/22 03:42:41;;;;;;;6.68;3.08;;;;;;;8.59;71.11;100755.59;2057253;28;20298;-62
2022/04/22 03:43:45;;;;;;;5.25;3.28;;;;;;;8.68;70.30;100754.03;2064664;28;20282;-62
2022/04/22 03:44:48;;;;;;;7.82;3.60;;;;;;;8.74;70.16;100747.63;2064026;28;20356;-63
2022/04/22 03:45:50;;;;;;;7.25;3.75;;;;;;;8.78;70.26;100761.31;2056758;28;20813;-63
2022/04/22 03:46:53;;;;;;;5.07;3.55;;;;;;;8.83;70.06;100761.34;2064401;28;20289;-62
2022/04/22 03:47:59;;;;;;;7.78;3.80;;;;;;;8.79;70.35;100746.84;2064396;28;20297;-63
2022/04/22 03:49:04;;;;;;;7.97;3.75;;;;;;;8.82;70.04;100763.22;2065323;28;20301;-62
2022/04/22 03:50:12;;;;;;;7.45;4.20;;;;;;;8.79;70.31;100755.69;2071186;28;20296;-63
2022/04/22 03:51:14;;;;;;;8.93;4.43;;;;;;;8.85;70.05;100775.28;2065166;28;20304;-64
2022/04/22 03:52:16;;;;;;;8.20;4.50;;;;;;;8.96;69.51;100774.28;2064369;28;20412;-63
2022/04/22 03:53:18;;;;;;;5.80;3.90;;;;;;;8.93;69.79;100749.88;2061035;28;20287;-63
2022/04/22 03:54:25;;;;;;;8.30;4.82;;;;;;;9.00;69.54;100771.88;2064850;28;20309;-63
2022/04/22 03:55:27;;;;;;;8.38;4.25;;;;;;;9.04;69.26;100762.22;2071623;28;20289;-63
2022/04/22 03:58:11;;;;;;;6.95;4.00;;;;;;;9.03;69.63;100774.84;2059288;28;20294;-63
2022/04/22 03:59:17;;;;;;;8.00;3.67;;;;;;;9.11;69.65;100764.66;2061228;28;20297;-63
2022/04/22 04:00:22;;;;;;;7.53;4.00;;;;;;;9.18;69.29;100774.09;2064312;28;20301;-62
2022/04/22 04:01:24;;;;;;;7.07;3.78;;;;;;;9.18;68.91;100763.34;2063621;28;20301;-63
2022/04/22 04:02:28;;;;;;;8.05;4.18;;;;;;;9.19;69.22;100775.69;2063942;28;20288;-62
2022/04/22 04:03:35;;;;;;;7.28;3.65;;;;;;;9.18;68.67;100776.78;2063102;28;20289;-63
2022/04/22 04:04:43;;;;;;;7.90;3.65;;;;;;;9.23;68.44;100768.72;2056284;28;20286;-63
2022/04/22 04:05:49;;;;;;;5.60;3.50;;;;;;;9.23;69.03;100792.06;2049333;28;20310;-67
2022/04/22 04:06:51;;;;;;;7.15;3.47;;;;;;;9.22;69.17;100769.00;2057606;28;20294;-68
2022/04/22 04:07:53;;;;;;;6.60;3.72;;;;;;;9.22;68.43;100763.63;2062822;28;20970;-67
2022/04/22 04:16:01;;;;;;;6.13;3.28;;;;;;;9.18;68.94;100774.09;2068410;28;20297;-67
2022/04/22 04:17:14;;;;;;;6.03;3.45;;;;;;;9.19;69.13;100778.38;2063115;28;20357;-67
2022/04/22 04:18:16;;;;;;;6.85;3.35;;;;;;;9.29;69.33;100769.53;2055601;28;20301;-66
2022/04/22 04:23:30;;;;;;;7.13;3.42;;;;;;;9.38;69.05;100781.38;2054697;28;20744;-66
2022/04/22 04:24:36;;;;;;;6.97;3.22;;;;;;;9.42;68.55;100784.34;2047075;29;20286;-64
2022/04/22 04:25:41;;;;;;;5.95;3.60;;;;;;;9.40;68.75;100784.63;2047795;28;20294;-65
2022/04/22 04:26:46;;;;;;;5.63;3.28;;;;;;;9.42;68.65;100782.44;2055545;28;20297;-66
2022/04/22 04:27:51;;;;;;;5.22;3.50;;;;;;;9.48;68.34;100781.41;2054871;28;20286;-66
2022/04/22 04:28:56;;;;;;;5.10;3.38;;;;;;;9.45;68.49;100794.53;2054863;28;20309;-66
2022/04/22 04:30:01;;;;;;;7.57;3.35;;;;;;;9.57;67.88;100780.88;2054263;28;20294;-65
2022/04/22 04:31:06;;;;;;;7.43;3.60;;;;;;;9.45;68.71;100784.59;2055234;28;20286;-67
2022/04/22 04:32:12;;;;;;;7.35;3.38;;;;;;;9.63;68.20;100779.81;2062846;28;20296;-66
2022/04/22 04:33:14;;;;;;;7.93;3.40;;;;;;;9.86;68.06;100779.28;2061285;28;20293;-65
2022/04/22 04:34:16;;;;;;;5.85;3.10;;;;;;;10.01;66.58;100815.31;2062461;28;20285;-67
2022/04/22 04:35:21;;;;;;;8.65;3.38;;;;;;;9.80;67.75;100793.00;2065548;28;20768;-67
2022/04/22 04:36:26;;;;;;;10.88;3.33;;;;;;;9.84;66.94;100786.03;2062835;28;20293;-64
2022/04/22 04:37:31;;;;;;;11.50;2.97;;;;;;;10.03;67.92;100799.72;2063473;28;20300;-70
2022/04/22 04:38:43;;;;;;;6.47;3.00;;;;;;;9.87;67.79;100788.97;2054988;28;20278;-72
2022/04/22 04:39:45;;;;;;;6.97;3.00;;;;;;;10.02;66.26;100798.09;2056977;28;20337;-67
2022/04/22 04:40:55;;;;;;;5.60;3.10;;;;;;;9.95;66.60;100801.06;2071207;28;20046;-67
2022/04/22 04:42:00;;;;;;;6.93;3.10;;;;;;;9.76;67.40;100800.78;2070292;28;20301;-65
2022/04/22 04:43:05;;;;;;;9.15;3.08;;;;;;;9.81;67.53;100800.78;2054791;28;20305;-67
2022/04/22 04:44:09;;;;;;;10.23;3.67;;;;;;;10.11;66.48;100796.50;2048700;28;20294;-67
2022/04/22 04:45:13;;;;;;;8.63;3.40;;;;;;;10.27;65.36;100814.25;2047217;28;20815;-67
2022/04/22 04:46:21;;;;;;;5.65;2.38;;;;;;;10.12;66.13;100808.84;2055700;28;20600;-66
2022/04/22 04:47:26;;;;;;;4.68;2.58;;;;;;;10.36;65.44;100803.75;2062769;28;20296;-65
2022/04/22 04:48:31;;;;;;;7.72;3.17;;;;;;;10.49;65.31;100805.09;2062472;28;20654;-66
2022/04/22 04:49:34;;;;;;;4.28;2.67;;;;;;;10.19;65.46;100826.31;2062202;28;20073;-66
2022/04/22 04:50:36;;;;;;;4.38;2.67;;;;;;;10.06;66.04;100809.94;2069305;28;20049;-67
2022/04/22 04:51:37;;;;;;;7.60;3.22;;;;;;;10.14;66.27;100794.06;2046550;28;20691;-66
2022/04/22 04:52:42;;;;;;;4.47;2.75;;;;;;;10.46;65.28;100798.38;2033613;28;20070;-67
2022/04/22 04:53:47;;;;;;;5.40;2.70;;;;;;;10.22;65.66;100803.50;2048361;28;20809;-65
2022/04/22 04:54:50;;;;;;;5.55;2.67;;;;;;;10.21;66.06;100796.47;2056696;28;20050;-66
2022/04/22 04:55:54;;;;;;;4.03;2.70;;;;;;;10.39;65.41;100795.16;2048076;29;20093;-66
2022/04/22 04:56:56;;;;;;;4.35;2.45;;;;;;;10.58;65.08;100790.81;2049347;28;20412;-66
2022/04/22 04:58:00;;;;;;;4.53;2.35;;;;;;;10.45;64.66;100807.50;2064672;28;20822;-67
2022/04/22 04:59:09;;;;;;;6.22;2.70;;;;;;;10.46;65.04;100798.38;2061304;28;20050;-67
2022/04/22 05:00:12;;;;;;;5.28;2.78;;;;;;;10.63;64.11;100795.38;2065469;28;20054;-67
2022/04/22 05:01:17;;;;;;;3.60;2.30;;;;;;;10.47;64.93;100796.50;2070498;28;20065;-67
2022/04/22 05:02:19;;;;;;;4.47;2.47;;;;;;;10.37;65.54;100805.38;2064304;28;20080;-66
2022/04/22 05:03:23;;;;;;;5.38;2.53;;;;;;;10.08;66.74;100818.53;2058674;28;20059;-67
2022/04/22 05:04:26;;;;;;;5.03;2.38;;;;;;;10.35;66.60;100802.16;2072652;28;20037;-67
2022/04/22 05:05:28;;;;;;;4.70;2.30;;;;;;;10.38;65.44;100807.78;2072531;28;20038;-67
2022/04/22 05:06:30;;;;;;;5.03;2.95;;;;;;;9.91;66.55;100808.84;2071924;28;20060;-67
2022/04/22 05:07:33;;;;;;;6.70;2.88;;;;;;;9.80;67.62;100801.84;2063302;28;20038;-68
2022/04/22 05:08:37;;;;;;;4.07;2.47;;;;;;;9.74;68.00;100803.75;2063709;28;20278;-66
2022/04/22 05:09:41;;;;;;;2.95;2.28;;;;;;;9.94;66.82;100819.06;2079643;28;20052;-65
2022/04/22 05:10:44;;;;;;;3.92;2.67;;;;;;;10.00;67.12;100805.66;2070405;28;20121;-67
2022/04/22 05:11:46;;;;;;;5.18;2.40;;;;;;;10.19;66.46;100804.03;2071309;28;20069;-66
2022/04/22 05:12:50;;;;;;;4.60;2.53;;;;;;;10.43;65.91;100807.81;2078664;28;20111;-68
2022/04/22 05:13:55;;;;;;;4.93;2.53;;;;;;;10.72;65.05;100812.59;2079685;28;20045;-66
2022/04/22 05:14:58;;;;;;;4.00;2.35;;;;;;;10.93;64.31;100801.75;2078494;28;20421;-67
2022/04/22 05:16:01;;;;;;;3.88;2.22;;;;;;;11.07;63.85;100816.25;2066437;28;20069;-66
2022/04/22 05:17:06;;;;;;;3.47;2.30;;;;;;;11.18;63.28;100815.09;2055460;28;20110;-66
2022/04/22 05:18:09;;;;;;;3.95;2.28;;;;;;;11.29;62.94;100805.91;2054013;28;20046;-67
2022/04/22 05:19:12;;;;;;;7.30;2.67;;;;;;;11.62;62.34;100808.94;2063205;28;20058;-67
2022/04/22 05:20:20;;;;;;;3.53;2.45;;;;;;;11.68;61.63;100817.78;2055174;28;20770;-65
2022/04/22 05:21:22;;;;;;;4.45;2.50;;;;;;;11.63;61.33;100805.16;2055696;28;20042;-68
2022/04/22 05:22:25;;;;;;;4.03;2.30;;;;;;;11.44;62.23;100804.19;2071140;28;20054;-67
2022/04/22 05:23:27;;;;;;;9.85;2.80;;;;;;;11.76;61.43;100820.72;2064217;28;20038;-67
2022/04/22 05:24:31;;;;;;;3.67;2.35;;;;;;;12.19;59.85;100810.16;2064023;28;20065;-67
2022/04/22 05:25:34;;;;;;;4.65;2.50;;;;;;;12.33;59.57;100804.13;2064305;28;20061;-68
2022/04/22 05:26:36;;;;;;;4.78;2.80;;;;;;;12.22;59.71;100812.28;2063591;28;20057;-67
2022/04/22 05:27:41;;;;;;;7.10;2.30;;;;;;;12.32;59.39;100807.91;2064406;28;20391;-66
2022/04/22 05:28:43;;;;;;;4.00;2.33;;;;;;;12.28;58.93;100811.16;2063678;28;20061;-68